This is the latest recevied weather packets stored in our database for station/object WB8SKP-WX. If no packets are shown the sender has not sent any weather packets the latest 10 day(s).
| Time | Temp. | Humidity | Pressure | Rain* | Wind** | Luminosity | Snow |
|---|---|---|---|---|---|---|---|
| 1777260065 | 17.22° C | 97% | 993.7 hPa | 0 mm | - | - | - |
| 1777258865 | 17.78° C | 96% | 993.8 hPa | 0 mm | - | - | - |
| 1777257665 | 18.33° C | 93% | 993.7 hPa | 0 mm | - | - | - |
| 1777256465 | 17.78° C | 96% | 993.6 hPa | 0 mm | - | - | - |
| 1777255265 | 17.78° C | 93% | 993.6 hPa | 0 mm | - | - | - |
| 1777254035 | 18.33° C | 90% | 993.3 hPa | 0 mm | - | - | - |
| 1777252835 | 19.44° C | 86% | 993.1 hPa | 0 mm | - | - | - |
| 1777251605 | 20° C | 81% | 993 hPa | 0 mm | - | - | - |
| 1777250405 | 21.11° C | 77% | 993 hPa | 0 mm | - | - | - |
| 1777249205 | 23.89° C | 68% | 993 hPa | 0 mm | - | - | - |
| 1777247975 | 25.56° C | 65% | 992.9 hPa | 0 mm | - | - | - |
| 1777246775 | 27.22° C | 60% | 992.7 hPa | 0 mm | - | - | - |
| 1777245545 | 26.11° C | 59% | 992.6 hPa | 0 mm | - | - | - |
| 1777244345 | 26.67° C | 51% | 992.9 hPa | 0 mm | - | - | - |
| 1777243115 | 27.22° C | 49% | 992.7 hPa | 0 mm | - | - | - |
| 1777241915 | 26.67° C | 48% | 992.5 hPa | 0 mm | - | - | - |
| 1777240715 | 25.56° C | 54% | 992.5 hPa | 0 mm | - | - | - |
| 1777239515 | 26.11° C | 54% | 992.6 hPa | 0 mm | - | - | - |
| 1777238285 | 26.67° C | 49% | 992.5 hPa | 0 mm | - | - | - |
| 1777237055 | 26.11° C | 49% | 992.5 hPa | 0 mm | - | - | - |
| 1777235854 | 26.11° C | 48% | 992.6 hPa | 0 mm | - | - | - |
| 1777234626 | 26.67° C | 47% | 993 hPa | 0 mm | - | - | - |
| 1777233424 | 26.67° C | 48% | 993.2 hPa | 0 mm | - | - | - |
| 1777232194 | 26.11° C | 46% | 993.3 hPa | 0 mm | - | - | - |
| 1777230994 | 26.11° C | 45% | 993.4 hPa | 0 mm | - | - | - |
* Rain latest hour (hover to see other rain measurements)
** Current wind speed in m/s (hover to see current wind gust speed)